createdAt,value
2022-10-12T00:00:18.107Z,14.07
2022-10-12T00:01:14.963Z,13.79
2022-10-12T00:02:11.741Z,13.95
2022-10-12T00:03:08.484Z,13.65
2022-10-12T00:04:05.362Z,13.97
2022-10-12T00:05:02.677Z,13.76
2022-10-12T00:06:06.523Z,13.95
2022-10-12T00:07:03.161Z,13.95
2022-10-12T00:07:59.855Z,13.86
2022-10-12T00:08:56.571Z,14.02
2022-10-12T00:09:53.406Z,14.05
2022-10-12T00:10:50.396Z,13.99
2022-10-12T00:11:47.098Z,14.05
2022-10-12T00:12:43.771Z,13.76
2022-10-12T00:13:40.583Z,13.92
2022-10-12T00:14:37.539Z,14.35
2022-10-12T00:15:38.106Z,14.41
2022-10-12T00:16:34.944Z,14.32
2022-10-12T00:17:31.670Z,13.80
2022-10-12T00:18:28.353Z,14.38
2022-10-12T00:19:25.062Z,14.38
2022-10-12T00:20:21.795Z,14.39
2022-10-12T00:21:18.735Z,14.13
2022-10-12T00:22:16.089Z,14.17
2022-10-12T00:23:12.922Z,13.18
2022-10-12T00:24:10.602Z,13.76
2022-10-12T00:25:07.802Z,13.82
2022-10-12T00:26:07.745Z,14.24
2022-10-12T00:27:04.441Z,14.34
2022-10-12T00:28:01.142Z,14.28
2022-10-12T00:29:01.017Z,14.14
2022-10-12T00:29:57.763Z,14.07
2022-10-12T00:30:54.630Z,14.07
2022-10-12T00:31:51.358Z,14.15
2022-10-12T00:32:48.126Z,13.51
2022-10-12T00:33:46.703Z,14.12
2022-10-12T00:34:43.442Z,14.09
2022-10-12T00:35:40.136Z,14.10
2022-10-12T00:36:36.833Z,14.13
2022-10-12T00:37:33.642Z,14.16
2022-10-12T00:38:30.319Z,14.06
2022-10-12T00:39:27.052Z,13.81
2022-10-12T00:40:24.140Z,14.01
2022-10-12T00:41:25.755Z,13.99
2022-10-12T00:42:22.517Z,13.90
2022-10-12T00:43:31.701Z,14.09
2022-10-12T00:44:40.433Z,14.04
2022-10-12T00:45:37.243Z,13.89
2022-10-12T00:46:42.991Z,13.97
2022-10-12T00:47:48.891Z,13.27
2022-10-12T00:48:52.642Z,13.83
2022-10-12T00:50:10.947Z,13.85
2022-10-12T00:51:09.920Z,13.97
2022-10-12T00:52:12.699Z,12.44
2022-10-12T00:53:15.559Z,13.25
2022-10-12T00:54:19.213Z,14.09
2022-10-12T00:55:21.133Z,14.06
2022-10-12T00:56:24.044Z,14.16
2022-10-12T00:57:23.419Z,14.22
2022-10-12T00:58:22.186Z,14.15
2022-10-12T00:59:28.434Z,14.03
2022-10-12T01:00:25.663Z,14.16
2022-10-12T01:01:23.248Z,13.05
2022-10-12T01:02:22.762Z,13.21
2022-10-12T01:03:22.531Z,13.37
2022-10-12T01:04:19.666Z,14.24
2022-10-12T01:05:18.365Z,14.20
2022-10-12T01:06:16.066Z,14.11
2022-10-12T01:07:14.163Z,14.12
2022-10-12T01:08:10.862Z,14.08
2022-10-12T01:09:07.889Z,13.36
2022-10-12T01:10:05.340Z,13.91
2022-10-12T01:11:02.137Z,13.99
2022-10-12T01:11:58.990Z,13.18
2022-10-12T01:12:55.730Z,13.67
2022-10-12T01:13:52.715Z,13.32
2022-10-12T01:14:49.560Z,13.64
2022-10-12T01:16:01.119Z,13.02
2022-10-12T01:17:28.597Z,14.05
2022-10-12T01:18:41.193Z,14.16
2022-10-12T01:19:52.589Z,14.15
2022-10-12T01:21:02.303Z,14.02
2022-10-12T01:22:07.285Z,14.00
2022-10-12T01:23:36.316Z,13.95
2022-10-12T01:24:45.225Z,14.05
2022-10-12T01:26:25.523Z,13.84
2022-10-12T01:27:38.080Z,13.84
2022-10-12T01:29:07.992Z,13.88
2022-10-12T01:30:08.933Z,13.90
2022-10-12T01:31:32.932Z,13.76
2022-10-12T01:33:02.459Z,13.87
2022-10-12T01:34:18.363Z,13.58
2022-10-12T01:35:34.265Z,13.40
2022-10-12T01:36:41.190Z,13.97
2022-10-12T01:38:21.665Z,14.07
2022-10-12T01:39:38.248Z,14.08
2022-10-12T01:40:51.115Z,14.13
2022-10-12T01:41:55.531Z,14.15
2022-10-12T01:42:55.549Z,13.28
2022-10-12T01:43:53.130Z,13.89
2022-10-12T01:44:49.853Z,13.97
2022-10-12T01:45:46.625Z,13.97
2022-10-12T01:46:44.462Z,13.71
2022-10-12T01:47:48.318Z,12.77
2022-10-12T01:48:49.118Z,13.46
2022-10-12T01:49:46.077Z,13.74
2022-10-12T01:50:52.434Z,12.94
2022-10-12T01:51:58.250Z,13.64
2022-10-12T01:53:16.750Z,13.78
2022-10-12T01:54:25.417Z,13.82
2022-10-12T01:55:25.099Z,13.71
2022-10-12T01:56:54.145Z,13.71
2022-10-12T01:57:57.025Z,13.76
2022-10-12T01:59:05.675Z,13.74
2022-10-12T02:00:14.527Z,13.14
2022-10-12T02:01:26.201Z,13.70
2022-10-12T02:02:52.457Z,13.65
2022-10-12T02:04:13.974Z,13.94
2022-10-12T02:05:16.752Z,13.95
2022-10-12T02:06:23.033Z,12.72
2022-10-12T02:07:54.139Z,13.63
2022-10-12T02:09:15.450Z,13.84
2022-10-12T02:10:23.497Z,13.80
2022-10-12T02:11:24.103Z,13.84
2022-10-12T02:12:24.950Z,13.72
2022-10-12T02:13:27.543Z,13.84
2022-10-12T02:14:33.529Z,13.90
2022-10-12T02:15:33.022Z,13.50
2022-10-12T02:16:38.147Z,14.01
2022-10-12T02:17:36.818Z,13.75
2022-10-12T02:18:40.151Z,13.70
2022-10-12T02:19:43.235Z,13.72
2022-10-12T02:20:42.386Z,12.99
2022-10-12T02:21:40.940Z,13.68
2022-10-12T02:22:41.774Z,13.81
2022-10-12T02:23:39.593Z,13.81
2022-10-12T02:24:41.037Z,13.84
2022-10-12T02:25:39.746Z,13.70
2022-10-12T02:26:42.263Z,13.87
2022-10-12T02:27:44.955Z,13.99
2022-10-12T02:28:45.054Z,13.44
2022-10-12T02:29:46.618Z,13.91
2022-10-12T02:31:07.534Z,13.95
2022-10-12T02:32:13.010Z,13.99
2022-10-12T02:33:22.602Z,13.95
2022-10-12T02:34:25.640Z,14.06
2022-10-12T02:35:50.489Z,14.01
2022-10-12T02:37:08.562Z,14.14
2022-10-12T02:38:19.238Z,13.79
2022-10-12T02:39:23.498Z,13.59
2022-10-12T02:40:39.268Z,14.04
2022-10-12T02:41:43.655Z,13.91
2022-10-12T02:44:15.127Z,13.83
2022-10-12T02:45:15.379Z,13.81
2022-10-12T02:46:14.942Z,14.06
2022-10-12T02:47:15.402Z,14.08
2022-10-12T02:48:19.542Z,14.07
2022-10-12T02:49:18.647Z,12.92
2022-10-12T02:50:19.145Z,13.91
2022-10-12T02:51:17.499Z,13.97
2022-10-12T02:52:14.229Z,14.02
2022-10-12T02:53:12.669Z,14.05
2022-10-12T02:54:09.658Z,13.74
2022-10-12T02:55:06.877Z,13.91
2022-10-12T02:56:08.403Z,13.90
2022-10-12T02:57:05.110Z,13.76
2022-10-12T02:58:01.821Z,13.41
2022-10-12T02:58:59.162Z,13.95
2022-10-12T02:59:55.875Z,14.00
2022-10-12T03:00:52.641Z,13.97
2022-10-12T03:01:49.824Z,13.58
2022-10-12T03:02:46.515Z,13.88
2022-10-12T03:03:44.218Z,13.36
2022-10-12T03:04:41.014Z,13.79
2022-10-12T03:05:37.803Z,14.07
2022-10-12T03:06:34.714Z,14.12
2022-10-12T03:07:31.403Z,14.22
2022-10-12T03:08:28.203Z,14.29
2022-10-12T03:09:25.012Z,14.30
2022-10-12T03:10:21.687Z,14.01
2022-10-12T03:11:18.366Z,14.22
2022-10-12T03:12:15.262Z,14.10
2022-10-12T03:13:12.034Z,13.76
2022-10-12T03:14:13.610Z,14.03
2022-10-12T03:15:10.706Z,14.06
2022-10-12T03:16:10.234Z,14.07
2022-10-12T03:17:07.021Z,14.05
2022-10-12T03:18:03.954Z,13.71
2022-10-12T03:19:00.694Z,14.03
2022-10-12T03:19:57.415Z,13.95
2022-10-12T03:20:54.106Z,13.86
2022-10-12T03:21:50.914Z,13.82
2022-10-12T03:22:47.682Z,13.55
2022-10-12T03:23:44.386Z,13.73
2022-10-12T03:24:41.078Z,13.66
2022-10-12T03:25:37.778Z,13.60
2022-10-12T03:26:34.759Z,13.59
2022-10-12T03:27:31.449Z,13.42
2022-10-12T03:28:28.395Z,13.75
2022-10-12T03:29:25.121Z,13.61
2022-10-12T03:30:21.866Z,13.52
2022-10-12T03:31:18.615Z,13.79
2022-10-12T03:32:16.101Z,12.91
2022-10-12T03:33:13.725Z,13.72
2022-10-12T03:34:10.668Z,13.63
2022-10-12T03:35:08.421Z,13.36
2022-10-12T03:36:05.806Z,13.31
2022-10-12T03:37:02.505Z,13.49
2022-10-12T03:37:59.218Z,13.59
2022-10-12T03:38:55.980Z,13.55
2022-10-12T03:39:52.682Z,13.65
2022-10-12T03:40:49.658Z,13.15
2022-10-12T03:41:46.355Z,13.27
2022-10-12T03:42:43.045Z,13.33
2022-10-12T03:43:40.591Z,13.22
2022-10-12T03:44:37.332Z,13.26
2022-10-12T03:45:34.713Z,13.41
2022-10-12T03:46:31.402Z,13.42
2022-10-12T03:47:28.085Z,13.13
2022-10-12T03:48:24.821Z,13.01
2022-10-12T03:49:21.663Z,13.31
2022-10-12T03:50:18.394Z,13.21
2022-10-12T03:51:15.075Z,12.76
2022-10-12T03:52:11.785Z,13.49
2022-10-12T03:53:08.464Z,13.49
2022-10-12T03:54:05.388Z,13.29
2022-10-12T03:55:02.098Z,13.43
2022-10-12T03:55:59.926Z,13.27
2022-10-12T03:56:56.861Z,12.88
2022-10-12T03:57:53.586Z,13.27
2022-10-12T03:58:50.312Z,13.33
2022-10-12T03:59:47.036Z,12.97
2022-10-12T04:00:43.725Z,13.35
2022-10-12T04:01:40.543Z,13.30
2022-10-12T04:02:37.276Z,13.32
2022-10-12T04:03:34.002Z,13.16
2022-10-12T04:04:30.754Z,13.26
2022-10-12T04:05:27.630Z,13.42
2022-10-12T04:06:24.417Z,13.45
2022-10-12T04:07:21.182Z,13.44
2022-10-12T04:08:17.873Z,13.33
2022-10-12T04:09:14.604Z,13.44
2022-10-12T04:10:11.442Z,13.42
2022-10-12T04:11:08.158Z,13.48
2022-10-12T04:12:05.123Z,13.45
2022-10-12T04:13:01.901Z,13.12
2022-10-12T04:13:58.925Z,13.25
2022-10-12T04:14:55.854Z,13.41
2022-10-12T04:15:52.742Z,13.38
2022-10-12T04:16:49.438Z,13.37
2022-10-12T04:17:46.398Z,12.43
2022-10-12T04:18:43.130Z,13.48
2022-10-12T04:19:39.830Z,13.22
2022-10-12T04:20:36.533Z,13.53
2022-10-12T04:21:33.246Z,12.83
2022-10-12T04:22:29.969Z,13.35
2022-10-12T04:23:26.814Z,13.55
2022-10-12T04:24:23.518Z,13.54
2022-10-12T04:25:20.249Z,13.55
2022-10-12T04:26:17.180Z,13.65
2022-10-12T04:27:13.887Z,13.30
2022-10-12T04:28:10.621Z,13.60
2022-10-12T04:29:07.386Z,13.37
2022-10-12T04:30:04.680Z,13.69
2022-10-12T04:31:01.678Z,12.79
2022-10-12T04:31:58.374Z,13.70
2022-10-12T04:32:55.802Z,13.60
2022-10-12T04:33:56.848Z,13.62
2022-10-12T04:34:53.667Z,13.83
2022-10-12T04:35:50.577Z,13.86
2022-10-12T04:36:47.258Z,13.64
2022-10-12T04:37:43.952Z,14.03
2022-10-12T04:38:40.653Z,13.89
2022-10-12T04:39:37.466Z,12.19
2022-10-12T04:40:34.175Z,13.77
2022-10-12T04:41:30.921Z,13.74
2022-10-12T04:42:27.651Z,13.42
2022-10-12T04:43:24.431Z,13.77
2022-10-12T04:44:21.536Z,13.72
2022-10-12T04:45:18.281Z,13.87
2022-10-12T04:46:15.410Z,13.92
2022-10-12T04:47:12.096Z,13.74
2022-10-12T04:48:09.254Z,13.60
2022-10-12T04:49:06.207Z,13.03
2022-10-12T04:50:03.284Z,14.12
2022-10-12T04:51:00.117Z,14.13
2022-10-12T04:51:56.781Z,14.12
2022-10-12T04:52:53.523Z,14.28
2022-10-12T04:53:50.388Z,14.08
2022-10-12T04:54:47.321Z,14.10
2022-10-12T04:55:44.240Z,14.17
2022-10-12T04:56:45.401Z,14.10
2022-10-12T04:57:44.310Z,13.26
2022-10-12T04:58:40.998Z,13.99
2022-10-12T04:59:37.821Z,13.70
2022-10-12T05:00:34.579Z,13.57
2022-10-12T05:01:31.506Z,13.77
2022-10-12T05:02:28.378Z,13.76
2022-10-12T05:03:25.695Z,13.71
2022-10-12T05:04:22.576Z,12.99
2022-10-12T05:05:19.442Z,13.58
2022-10-12T05:06:16.292Z,13.09
2022-10-12T05:07:13.081Z,13.59
2022-10-12T05:08:09.804Z,13.50
2022-10-12T05:09:06.528Z,13.85
2022-10-12T05:10:03.971Z,13.76
2022-10-12T05:11:00.887Z,13.16
2022-10-12T05:11:57.675Z,13.89
2022-10-12T05:12:54.426Z,13.95
2022-10-12T05:13:51.190Z,13.99
2022-10-12T05:14:47.966Z,13.95
2022-10-12T05:15:45.309Z,13.86
2022-10-12T05:16:42.062Z,13.91
2022-10-12T05:17:39.209Z,13.05
2022-10-12T05:18:36.263Z,13.93
2022-10-12T05:19:32.981Z,13.98
2022-10-12T05:20:29.704Z,14.05
2022-10-12T05:21:26.421Z,13.76
2022-10-12T05:22:23.110Z,13.92
2022-10-12T05:23:19.820Z,13.40
2022-10-12T05:24:16.497Z,13.82
2022-10-12T05:25:13.779Z,13.40
2022-10-12T05:26:10.491Z,13.90
2022-10-12T05:27:07.220Z,13.85
2022-10-12T05:28:04.495Z,13.71
2022-10-12T05:29:01.325Z,13.90
2022-10-12T05:29:58.177Z,13.38
2022-10-12T05:30:54.877Z,13.40
2022-10-12T05:31:51.595Z,13.86
2022-10-12T05:32:49.023Z,14.04
2022-10-12T05:33:45.713Z,13.69
2022-10-12T05:34:42.537Z,13.86
2022-10-12T05:35:41.011Z,13.93
2022-10-12T05:36:40.684Z,13.84
2022-10-12T05:37:37.756Z,13.76
2022-10-12T05:38:34.732Z,13.82
2022-10-12T05:39:31.553Z,13.78
2022-10-12T05:40:28.263Z,13.76
2022-10-12T05:41:25.057Z,13.85
2022-10-12T05:42:21.864Z,13.41
2022-10-12T05:43:18.720Z,13.79
2022-10-12T05:44:15.515Z,13.70
2022-10-12T05:45:12.525Z,13.01
2022-10-12T05:46:14.207Z,13.90
2022-10-12T05:47:11.284Z,14.01
2022-10-12T05:48:07.983Z,13.28
2022-10-12T05:49:04.735Z,14.05
2022-10-12T05:50:01.495Z,14.09
2022-10-12T05:50:58.271Z,14.09
2022-10-12T05:51:55.057Z,13.85
2022-10-12T05:52:51.766Z,13.78
2022-10-12T05:53:48.481Z,13.05
2022-10-12T05:54:45.195Z,13.89
2022-10-12T05:55:55.731Z,14.25
2022-10-12T05:56:52.427Z,14.25
2022-10-12T05:57:51.983Z,14.00
2022-10-12T05:58:48.866Z,14.10
2022-10-12T05:59:45.559Z,14.09
2022-10-12T06:00:42.230Z,14.20
2022-10-12T06:01:41.250Z,14.40
2022-10-12T06:02:38.271Z,14.32
2022-10-12T06:03:35.410Z,13.52
2022-10-12T06:04:32.174Z,14.54
2022-10-12T06:05:28.922Z,14.54
2022-10-12T06:06:26.387Z,14.30
2022-10-12T06:07:23.100Z,14.30
2022-10-12T06:08:20.127Z,14.30
2022-10-12T06:09:17.000Z,14.32
2022-10-12T06:10:13.770Z,14.49
2022-10-12T06:11:10.480Z,14.04
2022-10-12T06:12:07.822Z,14.57
2022-10-12T06:13:04.495Z,14.53
2022-10-12T06:14:01.174Z,14.41
2022-10-12T06:14:57.930Z,14.46
2022-10-12T06:15:55.042Z,14.10
2022-10-12T06:16:54.457Z,14.08
2022-10-12T06:17:51.457Z,14.62
2022-10-12T06:18:48.269Z,14.35
2022-10-12T06:19:45.100Z,14.43
2022-10-12T06:20:47.002Z,14.65
2022-10-12T06:21:43.804Z,14.20
2022-10-12T06:22:40.904Z,14.69
2022-10-12T06:23:37.845Z,14.27
2022-10-12T06:24:34.671Z,14.55
2022-10-12T06:25:31.366Z,14.66
2022-10-12T06:26:28.175Z,14.81
2022-10-12T06:27:25.390Z,14.79
2022-10-12T06:28:22.328Z,14.40
2022-10-12T06:29:19.106Z,14.46
2022-10-12T06:30:16.015Z,14.26
2022-10-12T06:31:12.862Z,14.57
2022-10-12T06:32:09.718Z,14.47
2022-10-12T06:33:07.153Z,14.45
2022-10-12T06:34:04.009Z,13.89
2022-10-12T06:35:00.798Z,14.22
2022-10-12T06:35:57.767Z,14.68
2022-10-12T06:36:57.132Z,14.51
2022-10-12T06:37:57.589Z,14.39
2022-10-12T06:38:54.307Z,14.29
2022-10-12T06:39:51.025Z,14.27
2022-10-12T06:40:47.926Z,14.45
2022-10-12T06:41:44.865Z,14.43
2022-10-12T06:42:41.590Z,14.28
2022-10-12T06:43:38.303Z,14.39
2022-10-12T06:44:35.194Z,14.42
2022-10-12T06:45:32.542Z,14.42
2022-10-12T06:46:29.225Z,14.45
2022-10-12T06:47:25.923Z,13.87
2022-10-12T06:48:22.844Z,14.08
2022-10-12T06:49:19.558Z,14.54
2022-10-12T06:50:16.390Z,14.29
2022-10-12T06:51:13.172Z,14.49
2022-10-12T06:52:09.878Z,14.47
2022-10-12T06:53:06.602Z,14.40
2022-10-12T06:54:03.605Z,14.30
2022-10-12T06:55:00.381Z,14.16
2022-10-12T06:55:57.846Z,14.69
2022-10-12T06:56:58.596Z,14.49
2022-10-12T06:57:56.489Z,14.37
2022-10-12T06:58:56.441Z,14.49
2022-10-12T06:59:53.129Z,13.92
2022-10-12T07:00:49.951Z,14.63
2022-10-12T07:01:46.735Z,14.31
2022-10-12T07:02:43.602Z,14.60
2022-10-12T07:03:40.282Z,14.84
2022-10-12T07:04:37.186Z,14.56
2022-10-12T07:05:33.879Z,14.39
2022-10-12T07:06:30.688Z,14.84
2022-10-12T07:07:31.300Z,14.97
2022-10-12T07:08:27.995Z,14.86
2022-10-12T07:09:24.723Z,14.53
2022-10-12T07:10:21.710Z,14.71
2022-10-12T07:11:18.387Z,14.87
2022-10-12T07:12:15.119Z,14.91
2022-10-12T07:13:11.838Z,14.74
2022-10-12T07:14:08.883Z,14.37
2022-10-12T07:15:07.058Z,14.47
2022-10-12T07:16:04.132Z,14.30
2022-10-12T07:17:00.843Z,14.65
2022-10-12T07:17:57.623Z,14.18
2022-10-12T07:18:54.404Z,14.60
2022-10-12T07:19:51.142Z,14.33
2022-10-12T07:20:47.886Z,14.08
2022-10-12T07:21:44.747Z,14.82
2022-10-12T07:22:41.771Z,14.82
2022-10-12T07:23:41.334Z,14.84
2022-10-12T07:24:41.790Z,14.47
2022-10-12T07:25:38.539Z,14.71
2022-10-12T07:26:35.298Z,14.64
2022-10-12T07:27:32.013Z,14.57
2022-10-12T07:28:29.147Z,15.05
2022-10-12T07:29:25.926Z,15.13
2022-10-12T07:30:22.694Z,14.84
2022-10-12T07:31:19.497Z,14.88
2022-10-12T07:32:16.478Z,15.15
2022-10-12T07:33:13.471Z,14.90
2022-10-12T07:34:10.184Z,14.62
2022-10-12T07:35:07.231Z,14.01
2022-10-12T07:36:14.828Z,14.97
2022-10-12T07:37:15.381Z,14.63
2022-10-12T07:38:12.131Z,14.86
2022-10-12T07:39:08.893Z,14.84
2022-10-12T07:40:06.134Z,14.94
2022-10-12T07:41:04.353Z,14.81
2022-10-12T07:42:01.071Z,14.70
2022-10-12T07:43:15.146Z,14.71
2022-10-12T07:44:12.784Z,14.66
2022-10-12T07:45:09.803Z,14.77
2022-10-12T07:46:07.525Z,14.93
2022-10-12T07:47:04.418Z,15.11
2022-10-12T07:48:01.162Z,15.15
2022-10-12T07:48:57.884Z,15.03
2022-10-12T07:49:54.575Z,15.08
2022-10-12T07:50:51.283Z,15.11
2022-10-12T07:51:48.374Z,15.04
2022-10-12T07:52:45.091Z,14.76
2022-10-12T07:53:41.854Z,14.97
2022-10-12T07:54:38.554Z,14.92
2022-10-12T07:55:35.309Z,15.05
2022-10-12T07:56:32.011Z,15.22
2022-10-12T07:57:28.748Z,15.43
2022-10-12T07:58:25.453Z,15.32
2022-10-12T07:59:22.153Z,15.39
2022-10-12T08:00:21.097Z,15.39
2022-10-12T08:01:19.737Z,15.57
2022-10-12T08:02:16.627Z,15.47
2022-10-12T08:03:16.655Z,15.03
2022-10-12T08:04:13.507Z,15.52
2022-10-12T08:05:10.580Z,15.50
2022-10-12T08:06:15.503Z,15.19
2022-10-12T08:07:12.178Z,15.17
2022-10-12T08:08:08.909Z,15.35
2022-10-12T08:09:05.678Z,15.12
2022-10-12T08:10:02.398Z,15.30
2022-10-12T08:11:01.328Z,15.50
2022-10-12T08:11:58.014Z,15.12
2022-10-12T08:12:54.730Z,15.13
2022-10-12T08:13:51.391Z,15.20
2022-10-12T08:14:48.178Z,14.88
2022-10-12T08:15:51.195Z,15.37
2022-10-12T08:16:48.096Z,15.26
2022-10-12T08:17:44.824Z,15.22
2022-10-12T08:18:42.734Z,15.20
2022-10-12T08:19:39.530Z,15.51
2022-10-12T08:20:39.362Z,15.28
2022-10-12T08:21:36.077Z,15.50
2022-10-12T08:22:32.899Z,15.45
2022-10-12T08:23:30.155Z,15.58
2022-10-12T08:24:27.263Z,15.70
2022-10-12T08:25:24.007Z,15.81
2022-10-12T08:26:20.734Z,15.40
2022-10-12T08:27:17.697Z,15.83
2022-10-12T08:28:14.440Z,16.12
2022-10-12T08:29:11.334Z,16.01
2022-10-12T08:30:08.801Z,15.90
2022-10-12T08:31:11.165Z,15.98
2022-10-12T08:32:08.168Z,15.94
2022-10-12T08:33:09.466Z,16.09
2022-10-12T08:34:07.082Z,16.07
2022-10-12T08:35:04.345Z,15.52
2022-10-12T08:36:03.352Z,15.70
2022-10-12T08:37:00.097Z,15.56
2022-10-12T08:37:56.795Z,14.82
2022-10-12T08:38:55.313Z,15.56
2022-10-12T08:39:52.080Z,15.80
2022-10-12T08:41:07.020Z,15.63
2022-10-12T08:42:36.225Z,16.14
2022-10-12T08:43:51.767Z,16.24
2022-10-12T08:44:57.676Z,16.09
2022-10-12T08:45:58.388Z,15.25
2022-10-12T08:47:05.348Z,16.19
2022-10-12T08:48:16.387Z,15.97
2022-10-12T08:49:21.804Z,15.93
2022-10-12T08:50:31.640Z,15.84
2022-10-12T08:51:33.259Z,15.73
2022-10-12T08:53:00.922Z,16.34
2022-10-12T08:53:57.567Z,16.34
2022-10-12T08:55:02.174Z,15.99
2022-10-12T08:55:59.463Z,16.33
2022-10-12T08:56:57.942Z,15.13
2022-10-12T08:57:54.678Z,15.65
2022-10-12T08:58:53.078Z,15.44
2022-10-12T08:59:49.804Z,14.99
2022-10-12T09:00:59.189Z,16.14
2022-10-12T09:02:31.514Z,16.05
2022-10-12T09:04:05.455Z,15.43
2022-10-12T09:05:10.824Z,15.57
2022-10-12T09:06:17.783Z,16.39
2022-10-12T09:07:28.199Z,16.70
2022-10-12T09:08:44.179Z,16.78
2022-10-12T09:10:13.202Z,16.65
2022-10-12T09:11:40.766Z,15.83
2022-10-12T09:13:13.107Z,16.44
2022-10-12T09:14:23.788Z,15.77
2022-10-12T09:15:33.741Z,16.88
2022-10-12T09:16:39.411Z,16.67
2022-10-12T09:17:42.127Z,16.50
2022-10-12T09:18:49.570Z,16.61
2022-10-12T09:19:46.284Z,16.14
2022-10-12T09:20:51.550Z,16.41
2022-10-12T09:21:50.121Z,16.67
2022-10-12T09:23:16.441Z,17.20
2022-10-12T09:24:25.401Z,17.21
2022-10-12T09:25:28.718Z,17.24
2022-10-12T09:26:40.080Z,17.38
2022-10-12T09:27:38.344Z,17.27
2022-10-12T09:28:48.917Z,16.72
2022-10-12T09:29:50.222Z,17.04
2022-10-12T09:31:06.484Z,17.13
2022-10-12T09:32:15.322Z,17.24
2022-10-12T09:33:25.181Z,17.14
2022-10-12T09:34:24.592Z,17.12
2022-10-12T09:35:21.521Z,17.32
2022-10-12T09:36:22.101Z,17.12
2022-10-12T09:37:23.630Z,17.45
2022-10-12T09:38:21.419Z,17.62
2022-10-12T09:39:39.662Z,17.65
2022-10-12T09:40:36.405Z,17.08
2022-10-12T09:41:39.524Z,17.01
2022-10-12T09:42:37.330Z,16.60
2022-10-12T09:43:34.338Z,17.58
2022-10-12T09:44:33.786Z,17.66
2022-10-12T09:45:34.595Z,17.58
2022-10-12T09:46:40.378Z,17.24
2022-10-12T09:47:37.172Z,17.15
2022-10-12T09:48:33.866Z,17.33
2022-10-12T09:49:45.955Z,17.53
2022-10-12T09:50:51.212Z,17.59
2022-10-12T09:51:48.674Z,17.62
2022-10-12T09:52:46.100Z,17.54
2022-10-12T09:53:52.027Z,17.39
2022-10-12T09:55:00.637Z,17.12
2022-10-12T09:56:11.911Z,17.45
2022-10-12T09:57:19.771Z,17.56
2022-10-12T09:58:21.711Z,16.89
2022-10-12T09:59:36.517Z,17.27
2022-10-12T10:00:35.791Z,17.38
2022-10-12T10:01:38.553Z,17.24
2022-10-12T10:02:48.809Z,17.32
2022-10-12T10:04:00.581Z,17.68
2022-10-12T10:05:25.731Z,17.67
2022-10-12T10:06:24.895Z,17.58
2022-10-12T10:07:29.746Z,17.62
2022-10-12T10:08:26.542Z,17.55
2022-10-12T10:09:35.467Z,17.06
2022-10-12T10:10:33.742Z,16.58
2022-10-12T10:11:31.666Z,17.38
2022-10-12T10:12:29.471Z,17.76
2022-10-12T10:13:30.727Z,17.40
2022-10-12T10:14:30.386Z,17.34
2022-10-12T10:15:31.658Z,17.67
2022-10-12T10:16:30.736Z,17.46
2022-10-12T10:17:32.056Z,17.61
2022-10-12T10:18:45.287Z,17.80
2022-10-12T10:19:50.311Z,17.30
2022-10-12T10:20:57.520Z,17.79
2022-10-12T10:21:55.834Z,17.58
2022-10-12T10:22:52.760Z,17.81
2022-10-12T10:23:55.562Z,17.81
2022-10-12T10:25:00.636Z,17.69
2022-10-12T10:26:08.727Z,17.70
2022-10-12T10:27:06.946Z,17.87
2022-10-12T10:28:20.217Z,17.87
2022-10-12T10:29:32.843Z,17.86
2022-10-12T10:30:33.963Z,17.03
2022-10-12T10:31:35.745Z,17.75
2022-10-12T10:32:32.459Z,17.58
2022-10-12T10:33:32.355Z,17.41
2022-10-12T10:34:29.089Z,17.68
2022-10-12T10:35:25.803Z,17.59
2022-10-12T10:36:27.054Z,17.75
2022-10-12T10:37:23.853Z,17.89
2022-10-12T10:38:20.605Z,17.52
2022-10-12T10:39:31.483Z,17.69
2022-10-12T10:40:32.642Z,17.60
2022-10-12T10:41:37.901Z,17.38
2022-10-12T10:42:35.172Z,17.48
2022-10-12T10:43:32.477Z,17.81
2022-10-12T10:44:36.153Z,17.60
2022-10-12T10:45:49.171Z,17.44
2022-10-12T10:46:46.799Z,17.58
2022-10-12T10:47:46.691Z,17.28
2022-10-12T10:48:56.517Z,16.78
2022-10-12T10:50:00.132Z,17.30
2022-10-12T10:51:02.065Z,16.76
2022-10-12T10:52:01.592Z,17.69
2022-10-12T10:53:02.953Z,17.52
2022-10-12T10:54:25.801Z,16.96
2022-10-12T10:55:42.728Z,16.89
2022-10-12T10:56:39.611Z,16.88
2022-10-12T10:57:47.205Z,16.98
2022-10-12T10:58:48.688Z,17.27
2022-10-12T11:00:33.450Z,17.70
2022-10-12T11:01:40.160Z,17.46
2022-10-12T11:03:11.990Z,17.41
2022-10-12T11:04:21.541Z,15.94
2022-10-12T11:05:32.353Z,17.00
2022-10-12T11:06:40.990Z,17.56
2022-10-12T11:07:51.259Z,17.32
2022-10-12T11:08:59.907Z,17.75
2022-10-12T11:10:02.948Z,16.91
2022-10-12T11:11:07.512Z,17.80
2022-10-12T11:12:16.391Z,17.95
2022-10-12T11:13:25.427Z,18.11
2022-10-12T11:14:29.667Z,17.77
2022-10-12T11:15:39.446Z,17.54
2022-10-12T11:16:43.759Z,17.42
2022-10-12T11:17:50.356Z,17.78
2022-10-12T11:18:58.785Z,17.80
2022-10-12T11:20:07.566Z,18.01
2022-10-12T11:21:12.945Z,17.92
2022-10-12T11:22:24.001Z,18.04
2022-10-12T11:23:51.387Z,18.11
2022-10-12T11:25:02.902Z,18.11
2022-10-12T11:26:13.822Z,17.80
2022-10-12T11:27:35.847Z,17.83
2022-10-12T11:28:34.961Z,18.04
2022-10-12T11:29:31.818Z,17.50
2022-10-12T11:30:41.873Z,16.77
2022-10-12T11:31:47.631Z,17.74
2022-10-12T11:33:08.407Z,17.87
2022-10-12T11:34:13.553Z,17.25
2022-10-12T11:35:24.131Z,17.45
2022-10-12T11:36:26.113Z,17.96
2022-10-12T11:37:39.802Z,17.76
2022-10-12T11:38:41.953Z,17.73
2022-10-12T11:39:45.158Z,17.89
2022-10-12T11:41:09.135Z,18.13
2022-10-12T11:42:22.866Z,17.82
2022-10-12T11:43:29.371Z,18.08
2022-10-12T11:44:41.030Z,17.39
2022-10-12T11:45:43.495Z,17.84
2022-10-12T11:46:54.961Z,18.27
2022-10-12T11:48:02.610Z,18.34
2022-10-12T11:49:07.708Z,18.23
2022-10-12T11:50:25.885Z,18.24
2022-10-12T11:51:22.586Z,17.82
2022-10-12T11:52:27.754Z,17.81
2022-10-12T11:53:32.823Z,18.08
2022-10-12T11:54:59.994Z,18.31
2022-10-12T11:56:03.074Z,18.18
2022-10-12T11:57:09.751Z,18.27
2022-10-12T11:58:36.330Z,18.35
2022-10-12T11:59:48.273Z,18.37
2022-10-12T12:01:23.734Z,18.30
2022-10-12T12:02:20.365Z,18.40
2022-10-12T12:03:26.881Z,18.23
2022-10-12T12:04:42.157Z,17.77
2022-10-12T12:05:39.622Z,18.23
2022-10-12T12:06:54.894Z,18.23
2022-10-12T12:07:56.811Z,18.37
2022-10-12T12:08:53.456Z,18.46
2022-10-12T12:09:51.241Z,18.30
2022-10-12T12:10:54.181Z,17.97
2022-10-12T12:11:50.951Z,18.41
2022-10-12T12:13:15.348Z,18.56
2022-10-12T12:14:21.463Z,18.31
2022-10-12T12:15:22.710Z,18.34
2022-10-12T12:16:19.429Z,18.36
2022-10-12T12:17:18.844Z,18.30
2022-10-12T12:18:19.633Z,18.42
2022-10-12T12:19:41.446Z,18.53
2022-10-12T12:20:44.455Z,18.49
2022-10-12T12:22:09.179Z,18.47
2022-10-12T12:23:24.942Z,17.71
2022-10-12T12:24:23.488Z,17.56
2022-10-12T12:25:40.497Z,18.18
2022-10-12T12:26:37.270Z,17.34
2022-10-12T12:27:54.261Z,18.39
2022-10-12T12:29:10.978Z,18.49
2022-10-12T12:30:19.757Z,18.49
2022-10-12T12:31:27.109Z,18.49
2022-10-12T12:32:27.090Z,18.27
2022-10-12T12:33:28.560Z,18.52
2022-10-12T12:34:26.977Z,18.21
2022-10-12T12:35:39.862Z,18.32
2022-10-12T12:36:46.400Z,18.08
2022-10-12T12:37:43.250Z,17.93
2022-10-12T12:38:49.827Z,18.17
2022-10-12T12:39:54.889Z,17.82
2022-10-12T12:41:02.927Z,18.12
2022-10-12T12:42:03.613Z,18.13
2022-10-12T12:43:22.143Z,18.24
2022-10-12T12:44:30.903Z,18.18
2022-10-12T12:45:30.717Z,18.09
2022-10-12T12:48:39.466Z,17.64
2022-10-12T12:49:46.917Z,17.72
2022-10-12T12:50:44.355Z,18.00
2022-10-12T12:51:44.190Z,18.13
2022-10-12T12:52:41.608Z,18.00
2022-10-12T12:53:45.066Z,18.31
2022-10-12T12:54:53.307Z,17.90
2022-10-12T12:56:07.727Z,18.15
2022-10-12T12:57:39.607Z,17.56
2022-10-12T12:59:01.734Z,18.16
2022-10-12T13:00:13.828Z,18.10
2022-10-12T13:01:37.130Z,18.01
2022-10-12T13:03:04.637Z,17.95
2022-10-12T13:04:46.182Z,18.01
2022-10-12T13:06:00.847Z,17.86
2022-10-12T13:07:26.549Z,18.22
2022-10-12T13:08:45.023Z,18.25
2022-10-12T13:09:41.689Z,18.25
2022-10-12T13:11:00.706Z,18.17
2022-10-12T13:12:10.462Z,18.11
2022-10-12T13:13:10.163Z,17.82
2022-10-12T13:14:40.297Z,18.00
2022-10-12T13:16:09.677Z,18.31
2022-10-12T13:17:33.002Z,18.14
2022-10-12T13:18:46.886Z,18.13
2022-10-12T13:19:45.087Z,18.17
2022-10-12T13:20:49.007Z,18.25
2022-10-12T13:21:52.725Z,18.12